Time;durP1;ratioP1;P1;durP2;ratioP2;P2;SDS_P1;SDS_P2;PMS_P1;PMS_P2;Temp;Humidity;BMP_temperature;BMP_pressure;BME280_temperature;BME280_humidity;BME280_pressure;Samples;Min_cycle;Max_cycle;Signal;HPM_P1;HPM_P2
2022/01/17 00:01:33;;;;;;;13.57;9.63;;;;;;;18.76;46.93;103013.91;5053273;28;20427;-62
2022/01/17 00:03:59;;;;;;;12.93;9.50;;;;;;;18.75;47.11;103024.53;5053558;28;20490;-62
2022/01/17 00:06:24;;;;;;;12.88;9.43;;;;;;;18.73;47.06;103019.31;5052019;28;20037;-62
2022/01/17 00:08:50;;;;;;;14.77;10.25;;;;;;;18.71;47.38;103025.59;5053153;28;20032;-62
2022/01/17 00:11:16;;;;;;;12.23;9.77;;;;;;;18.70;47.13;103037.13;5053737;28;20037;-62
2022/01/17 00:13:46;;;;;;;13.02;9.70;;;;;;;18.66;47.40;103034.63;5052502;28;20028;-62
2022/01/17 00:16:18;;;;;;;12.02;9.50;;;;;;;18.65;47.17;103042.63;5053556;28;20028;-62
2022/01/17 00:21:14;;;;;;;13.13;9.07;;;;;;;18.61;47.50;103039.28;5052387;28;20096;-61
2022/01/17 00:23:40;;;;;;;12.55;10.00;;;;;;;18.59;47.46;103045.56;5053185;28;20076;-63
2022/01/17 00:26:06;;;;;;;14.20;9.80;;;;;;;18.57;47.13;103043.00;5053439;28;20483;-62
2022/01/17 00:28:32;;;;;;;12.60;10.05;;;;;;;18.55;47.50;103050.16;5052072;28;20068;-62
2022/01/17 00:31:00;;;;;;;11.90;9.38;;;;;;;18.55;47.41;103054.56;5053223;28;20025;-62
2022/01/17 00:33:26;;;;;;;14.30;9.48;;;;;;;18.52;47.22;103055.56;5052184;28;20496;-63
2022/01/17 00:35:51;;;;;;;11.77;9.10;;;;;;;18.49;47.39;103043.38;5052598;28;20021;-63
2022/01/17 00:38:17;;;;;;;14.63;9.83;;;;;;;18.48;47.46;103036.38;5052852;28;20049;-63
2022/01/17 00:40:42;;;;;;;10.47;8.30;;;;;;;18.46;47.40;103035.59;5051987;28;20274;-62
2022/01/17 00:43:09;;;;;;;14.30;8.88;;;;;;;18.45;47.39;103033.00;5052861;28;20300;-63
2022/01/17 00:45:37;;;;;;;12.68;8.85;;;;;;;18.43;47.58;103033.09;5052710;28;20029;-63
2022/01/17 00:48:03;;;;;;;11.20;8.93;;;;;;;18.42;47.60;103035.81;5051956;28;20044;-63
2022/01/17 00:50:29;;;;;;;14.00;9.27;;;;;;;18.40;47.71;103041.16;5053004;28;20020;-62
2022/01/17 00:53:02;;;;;;;11.23;8.88;;;;;;;18.38;47.83;103048.31;5052714;28;20017;-63
2022/01/17 00:55:29;;;;;;;12.82;8.80;;;;;;;18.38;47.87;103052.75;5051915;28;20033;-63
2022/01/17 00:57:54;;;;;;;12.25;8.95;;;;;;;18.36;47.61;103052.81;5052852;28;20051;-63
2022/01/17 01:00:19;;;;;;;12.47;8.20;;;;;;;18.34;47.57;103049.41;5052819;28;20033;-63
2022/01/17 01:02:46;;;;;;;13.27;9.30;;;;;;;18.33;47.52;103049.47;5051420;28;20362;-63
2022/01/17 01:05:12;;;;;;;11.68;8.63;;;;;;;18.31;47.79;103049.53;5052859;28;20049;-63
2022/01/17 01:07:40;;;;;;;12.38;8.73;;;;;;;18.32;47.46;103053.88;5052406;28;20025;-63
2022/01/17 01:10:10;;;;;;;12.90;8.35;;;;;;;18.30;47.67;103047.81;5051840;28;20167;-63
2022/01/17 01:12:40;;;;;;;13.40;8.75;;;;;;;18.28;47.90;103057.59;5052508;28;20063;-63
2022/01/17 01:15:13;;;;;;;12.20;7.57;;;;;;;18.26;47.96;103064.72;5052525;28;20017;-62
2022/01/17 01:17:55;;;;;;;11.85;8.07;;;;;;;18.24;47.69;103064.78;5051529;28;20067;-62
2022/01/17 01:21:05;;;;;;;9.93;7.78;;;;;;;18.23;47.74;103070.13;5056738;28;20037;-63
2022/01/17 01:28:43;;;;;;;10.80;7.72;;;;;;;18.19;47.65;103066.78;5056614;28;20039;-63
2022/01/17 01:31:20;;;;;;;12.82;8.10;;;;;;;18.17;47.80;103062.53;5055889;28;20033;-62
2022/01/17 01:33:52;;;;;;;11.32;7.72;;;;;;;18.15;47.97;103052.03;5056344;28;20025;-62
2022/01/17 01:36:24;;;;;;;11.85;7.82;;;;;;;18.13;47.78;103043.31;5056695;28;20017;-63
2022/01/17 01:38:53;;;;;;;11.88;7.53;;;;;;;18.12;47.61;103050.41;5055431;28;20055;-63
2022/01/17 01:41:19;;;;;;;11.85;8.15;;;;;;;18.11;47.72;103048.66;5056478;28;20376;-63
2022/01/17 01:43:45;;;;;;;10.25;7.03;;;;;;;18.09;47.69;103042.63;5055237;28;20028;-62
2022/01/17 01:46:14;;;;;;;10.27;7.13;;;;;;;18.09;47.74;103053.16;5056166;28;20025;-63
2022/01/17 01:48:40;;;;;;;10.40;7.00;;;;;;;18.08;47.78;103058.50;5055867;28;20063;-62
2022/01/17 01:51:05;;;;;;;12.43;7.70;;;;;;;18.06;47.96;103066.50;5055590;28;20013;-63
2022/01/17 01:53:30;;;;;;;12.10;7.35;;;;;;;18.05;47.97;103079.75;5056008;28;20041;-63
2022/01/17 01:55:57;;;;;;;9.48;6.55;;;;;;;18.04;47.64;103078.03;5056258;28;20396;-63
2022/01/17 01:58:24;;;;;;;11.57;7.18;;;;;;;18.03;47.89;103084.25;5055255;28;20021;-63
2022/01/17 02:00:50;;;;;;;10.15;6.40;;;;;;;18.01;47.58;103073.78;5055743;28;20425;-63
2022/01/17 02:03:15;;;;;;;9.27;6.90;;;;;;;18.00;47.91;103066.78;5055929;28;20025;-63
2022/01/17 02:05:42;;;;;;;9.30;6.40;;;;;;;17.99;47.70;103057.19;5055067;28;20508;-63
2022/01/17 02:08:12;;;;;;;12.15;6.63;;;;;;;17.98;47.95;103070.44;5055998;28;20040;-63
2022/01/17 02:10:37;;;;;;;11.27;6.50;;;;;;;17.96;47.72;103081.06;5055621;28;20032;-63
2022/01/17 02:13:03;;;;;;;10.13;6.35;;;;;;;17.95;47.79;103072.25;5054979;28;20025;-63
2022/01/17 02:15:31;;;;;;;9.05;6.53;;;;;;;17.93;47.78;103081.19;5055927;28;20087;-63
2022/01/17 02:17:57;;;;;;;11.73;7.30;;;;;;;17.92;47.92;103075.03;5055663;28;20460;-63
2022/01/17 02:20:39;;;;;;;8.70;5.93;;;;;;;17.92;47.55;103077.69;5055024;28;20063;-63
2022/01/17 02:23:06;;;;;;;10.98;6.10;;;;;;;17.91;47.53;103080.38;5055427;28;20481;-62
2022/01/17 02:25:32;;;;;;;11.57;6.68;;;;;;;17.89;47.62;103088.38;5055285;28;20021;-62
2022/01/17 02:27:57;;;;;;;9.98;6.00;;;;;;;17.87;47.88;103078.78;5054854;28;20025;-62
2022/01/17 02:30:23;;;;;;;9.80;6.07;;;;;;;17.87;47.21;103066.44;5055311;28;20473;-63
2022/01/17 02:32:49;;;;;;;9.23;5.78;;;;;;;17.89;47.64;103066.41;5054869;28;20210;-63
2022/01/17 02:35:21;;;;;;;10.38;5.72;;;;;;;17.90;47.80;103066.34;5055301;28;20037;-63
2022/01/17 02:37:46;;;;;;;9.27;5.45;;;;;;;17.93;47.75;103057.44;5054752;28;20041;-64
2022/01/17 02:40:16;;;;;;;8.73;5.78;;;;;;;17.96;47.33;103073.13;5054397;28;20041;-61
2022/01/17 02:42:43;;;;;;;8.57;5.18;;;;;;;17.98;47.25;103079.19;5054871;28;20067;-62
2022/01/17 02:45:19;;;;;;;8.27;5.55;;;;;;;18.00;47.07;103072.06;5055354;28;20035;-62
2022/01/17 02:47:45;;;;;;;8.38;5.00;;;;;;;18.02;47.34;103066.72;5054181;28;20021;-62
2022/01/17 02:50:10;;;;;;;9.32;5.78;;;;;;;18.04;47.07;103067.50;5054993;28;20054;-63
2022/01/17 02:52:36;;;;;;;9.85;5.72;;;;;;;18.05;46.96;103064.78;5054648;28;20021;-62
2022/01/17 02:55:01;;;;;;;9.15;5.15;;;;;;;18.05;46.95;103070.06;5054230;28;20033;-63
2022/01/17 02:57:28;;;;;;;8.60;4.90;;;;;;;18.07;46.71;103080.53;5054783;28;20095;-62
2022/01/17 02:59:53;;;;;;;7.43;5.22;;;;;;;18.06;46.88;103079.69;5054662;28;20025;-62
2022/01/17 03:02:18;;;;;;;8.63;5.03;;;;;;;18.06;46.84;103077.06;5054216;28;20029;-62
2022/01/17 03:04:43;;;;;;;8.50;5.03;;;;;;;18.06;46.62;103074.41;5054545;28;20074;-62
2022/01/17 03:07:09;;;;;;;9.02;5.55;;;;;;;18.06;46.43;103070.94;5054916;28;20360;-62
2022/01/17 03:09:44;;;;;;;7.82;4.90;;;;;;;18.05;46.85;103066.56;5053607;28;20477;-62
2022/01/17 03:12:09;;;;;;;7.45;4.90;;;;;;;18.05;46.71;103066.56;5054874;28;20032;-63
2022/01/17 03:14:40;;;;;;;8.00;4.75;;;;;;;18.03;46.65;103058.72;5054436;28;20017;-63
2022/01/17 03:17:06;;;;;;;8.60;5.05;;;;;;;18.04;46.44;103060.44;5053926;28;20021;-63
2022/01/17 03:19:31;;;;;;;9.90;5.05;;;;;;;18.04;46.70;103056.94;5054335;28;20086;-63
2022/01/17 03:21:57;;;;;;;9.45;4.85;;;;;;;18.01;46.37;103059.72;5054354;28;20040;-63
2022/01/17 03:24:25;;;;;;;7.57;4.43;;;;;;;18.03;46.65;103068.44;5053475;28;20025;-63
2022/01/17 03:26:50;;;;;;;7.57;4.72;;;;;;;18.02;46.36;103059.63;5054183;28;20266;-63
2022/01/17 03:29:16;;;;;;;8.88;5.20;;;;;;;18.02;46.80;103045.59;5053718;28;20100;-63
2022/01/17 03:31:41;;;;;;;8.70;5.05;;;;;;;18.03;46.53;103050.81;5054077;28;20484;-63
2022/01/17 03:34:06;;;;;;;7.77;4.70;;;;;;;18.04;46.97;103052.53;5054413;28;20021;-63
2022/01/17 03:36:32;;;;;;;7.25;4.72;;;;;;;18.05;46.57;103050.75;5053134;28;20281;-63
2022/01/17 03:38:57;;;;;;;7.35;4.50;;;;;;;18.06;46.75;103052.47;5053972;28;20041;-64
2022/01/17 03:41:24;;;;;;;8.25;4.90;;;;;;;18.06;46.47;103057.75;5053768;28;20037;-62
2022/01/17 03:43:49;;;;;;;7.82;4.70;;;;;;;18.08;46.59;103066.44;5053098;28;20383;-62
2022/01/17 03:46:14;;;;;;;7.95;4.93;;;;;;;18.07;46.22;103072.63;5054019;28;20028;-62
2022/01/17 03:48:39;;;;;;;8.60;4.67;;;;;;;18.07;46.12;103065.59;5053783;28;20033;-62
2022/01/17 03:51:05;;;;;;;8.68;4.53;;;;;;;18.07;46.32;103072.63;5053192;28;20261;-63
2022/01/17 03:53:31;;;;;;;8.45;4.70;;;;;;;18.07;46.27;103073.50;5053336;28;20170;-62
2022/01/17 03:55:59;;;;;;;8.68;4.78;;;;;;;18.07;46.29;103067.34;5054067;28;20392;-63
2022/01/17 03:58:27;;;;;;;7.70;4.75;;;;;;;18.05;46.19;103067.41;5053000;28;20017;-63
2022/01/17 04:00:55;;;;;;;9.63;4.63;;;;;;;18.05;46.00;103059.50;5053616;28;20021;-64
2022/01/17 04:03:21;;;;;;;7.38;4.25;;;;;;;18.05;45.97;103063.94;5053789;28;20401;-63
2022/01/17 04:05:46;;;;;;;7.78;4.63;;;;;;;18.04;46.17;103062.22;5052573;28;20021;-63
2022/01/17 04:08:12;;;;;;;8.77;4.72;;;;;;;18.04;46.19;103068.38;5053652;28;20066;-63
2022/01/17 04:10:38;;;;;;;10.93;4.32;;;;;;;18.03;46.18;103065.78;5053370;28;20040;-63
2022/01/17 04:13:04;;;;;;;7.53;4.38;;;;;;;18.02;46.15;103070.19;5052842;28;20049;-62
2022/01/17 04:15:35;;;;;;;7.88;4.22;;;;;;;18.00;45.97;103066.78;5053252;28;20044;-64
2022/01/17 04:18:02;;;;;;;7.78;4.15;;;;;;;18.00;46.25;103066.78;5053428;28;20527;-63
2022/01/17 04:20:28;;;;;;;10.63;4.80;;;;;;;17.99;45.91;103080.03;5052658;28;20439;-63
2022/01/17 04:23:02;;;;;;;7.70;4.35;;;;;;;17.99;46.26;103078.28;5053022;28;20087;-63
2022/01/17 04:25:30;;;;;;;8.40;4.70;;;;;;;18.00;46.12;103084.41;5052768;28;20384;-63
2022/01/17 04:27:57;;;;;;;9.05;4.20;;;;;;;17.99;46.20;103080.03;5053524;28;20060;-63
2022/01/17 04:30:23;;;;;;;7.75;4.35;;;;;;;18.00;46.32;103079.97;5053311;28;20050;-62
2022/01/17 04:32:48;;;;;;;10.13;4.18;;;;;;;18.01;46.33;103092.25;5052103;28;20025;-63
2022/01/17 04:35:20;;;;;;;6.40;3.78;;;;;;;18.02;46.38;103095.72;5053134;28;20025;-62
2022/01/17 04:37:51;;;;;;;7.68;3.90;;;;;;;18.03;46.36;103086.91;5052700;28;20041;-62
2022/01/17 04:40:17;;;;;;;6.55;3.55;;;;;;;18.03;45.82;103092.19;5052389;28;20029;-63
2022/01/17 04:42:44;;;;;;;6.57;3.75;;;;;;;18.04;45.94;103093.88;5052694;28;20053;-63
2022/01/17 04:45:11;;;;;;;7.82;3.95;;;;;;;18.03;45.85;103094.81;5052889;28;20062;-62
2022/01/17 04:47:38;;;;;;;7.03;3.90;;;;;;;18.03;46.03;103086.91;5051665;28;20029;-62
2022/01/17 04:50:21;;;;;;;8.00;3.95;;;;;;;18.01;45.55;103084.34;5052831;28;20116;-63
2022/01/17 04:52:48;;;;;;;9.40;3.95;;;;;;;18.00;45.92;103082.63;5052031;28;20076;-62
2022/01/17 04:55:15;;;;;;;6.22;3.60;;;;;;;18.00;46.09;103076.50;5052001;28;20044;-63
2022/01/17 04:57:43;;;;;;;6.32;3.63;;;;;;;18.00;45.79;103082.63;5052443;28;20091;-62
2022/01/17 05:00:17;;;;;;;7.53;4.07;;;;;;;18.00;46.17;103087.03;5052591;28;20388;-63
2022/01/17 05:02:42;;;;;;;7.82;4.00;;;;;;;18.00;46.13;103082.63;5051837;28;20055;-63
2022/01/17 05:05:09;;;;;;;9.55;3.88;;;;;;;18.01;46.08;103094.00;5052619;28;20079;-63
2022/01/17 05:07:35;;;;;;;6.78;3.65;;;;;;;18.02;46.14;103101.84;5051855;28;20021;-62
2022/01/17 05:10:03;;;;;;;7.38;3.70;;;;;;;18.03;46.22;103098.31;5052614;28;20036;-63
2022/01/17 05:12:29;;;;;;;6.88;3.60;;;;;;;18.04;45.91;103097.38;5052212;28;20044;-63
2022/01/17 05:14:55;;;;;;;7.53;3.92;;;;;;;18.04;46.09;103104.44;5051715;28;20116;-63
2022/01/17 05:20:00;;;;;;;8.65;3.60;;;;;;;18.05;45.71;103116.72;5052689;28;20036;-62
2022/01/17 05:22:30;;;;;;;7.07;3.47;;;;;;;18.05;46.22;103120.19;5051771;28;20021;-62
2022/01/17 05:24:55;;;;;;;5.55;3.10;;;;;;;18.04;45.65;103120.25;5052503;28;20021;-62
2022/01/17 05:27:21;;;;;;;7.18;3.65;;;;;;;18.04;45.59;103122.91;5052294;28;20048;-62
2022/01/17 05:29:49;;;;;;;7.78;4.03;;;;;;;18.03;45.74;103127.31;5051342;28;20028;-63
2022/01/17 05:32:15;;;;;;;6.82;3.85;;;;;;;18.02;45.36;103128.25;5052554;28;20035;-63
2022/01/17 05:34:41;;;;;;;7.28;3.50;;;;;;;18.02;45.55;103124.75;5052017;28;20080;-63
2022/01/17 05:37:07;;;;;;;6.57;3.78;;;;;;;18.02;45.51;103136.16;5051373;28;20049;-63
2022/01/17 05:39:34;;;;;;;6.57;3.50;;;;;;;18.03;45.75;103129.97;5052179;28;20028;-63
2022/01/17 05:42:00;;;;;;;8.30;4.05;;;;;;;18.03;46.02;103134.41;5051972;28;20033;-63
2022/01/17 05:44:25;;;;;;;6.25;3.25;;;;;;;18.03;45.74;103135.25;5051751;28;20033;-63
2022/01/17 05:46:50;;;;;;;10.15;3.60;;;;;;;18.04;45.93;103130.81;5052044;28;20025;-63
2022/01/17 05:49:16;;;;;;;8.70;3.70;;;;;;;18.04;45.60;103131.69;5052179;28;20025;-62
2022/01/17 05:51:41;;;;;;;9.52;4.40;;;;;;;18.05;45.58;103130.75;5051067;28;20380;-63
2022/01/17 05:54:07;;;;;;;5.82;3.67;;;;;;;18.05;45.88;103128.09;5052235;28;20037;-63
2022/01/17 05:56:33;;;;;;;8.07;4.03;;;;;;;18.05;45.58;103128.09;5051652;28;20033;-63
2022/01/17 05:58:58;;;;;;;8.73;3.88;;;;;;;18.04;45.68;103129.06;5051504;28;20037;-63
2022/01/17 06:01:24;;;;;;;8.98;3.58;;;;;;;18.04;45.73;103128.19;5052194;28;20036;-62
2022/01/17 06:03:50;;;;;;;6.95;3.53;;;;;;;18.05;45.72;103146.56;5051488;28;20037;-62
2022/01/17 06:06:15;;;;;;;6.63;3.37;;;;;;;18.06;46.04;103142.19;5055690;28;20021;-62
2022/01/17 06:08:42;;;;;;;8.02;3.55;;;;;;;18.09;46.11;103139.41;5055434;28;20352;-63
2022/01/17 06:11:10;;;;;;;7.97;3.67;;;;;;;18.09;46.58;103134.97;5054980;28;20048;-63
2022/01/17 06:13:35;;;;;;;9.57;4.50;;;;;;;18.11;45.34;103135.75;5055715;28;20114;-63
2022/01/17 06:16:06;;;;;;;6.57;3.75;;;;;;;18.12;46.26;103142.75;5055935;28;20025;-63
2022/01/17 06:18:31;;;;;;;7.00;3.58;;;;;;;18.16;46.75;103147.91;5054827;28;20095;-62
2022/01/17 06:20:57;;;;;;;11.23;3.40;;;;;;;18.21;46.69;103145.91;5055910;28;20472;-61
2022/01/17 06:23:24;;;;;;;7.32;3.10;;;;;;;18.25;46.86;103140.41;5055823;28;20269;-62
2022/01/17 06:25:50;;;;;;;4.63;2.58;;;;;;;18.31;46.68;103150.69;5054797;28;20075;-62
2022/01/17 06:28:15;;;;;;;8.00;3.22;;;;;;;18.36;46.96;103147.84;5055916;28;20520;-62
2022/01/17 06:30:40;;;;;;;6.13;3.10;;;;;;;18.41;46.88;103151.13;5055870;28;20029;-63
2022/01/17 06:33:05;;;;;;;8.90;3.13;;;;;;;18.44;46.82;103140.41;5055372;28;20044;-63
2022/01/17 06:35:32;;;;;;;7.77;3.20;;;;;;;18.48;46.84;103141.13;5055805;28;20048;-64
2022/01/17 06:37:58;;;;;;;7.25;4.22;;;;;;;18.47;46.40;103135.00;5055827;28;20711;-62
2022/01/17 06:40:23;;;;;;;8.77;3.35;;;;;;;18.49;47.14;103143.69;5054809;28;20529;-63
2022/01/17 06:42:52;;;;;;;6.90;3.22;;;;;;;18.52;47.12;103155.91;5055061;28;20504;-63
2022/01/17 06:45:18;;;;;;;9.52;3.55;;;;;;;18.56;47.14;103169.81;5055110;28;20025;-64
2022/01/17 06:47:44;;;;;;;6.47;2.90;;;;;;;18.58;47.34;103166.19;5054134;28;20064;-64
2022/01/17 06:50:10;;;;;;;6.70;3.00;;;;;;;18.62;47.34;103164.25;5054986;28;20058;-64
2022/01/17 06:52:37;;;;;;;7.32;3.20;;;;;;;18.65;47.37;103169.41;5054654;28;20432;-63
2022/01/17 06:55:02;;;;;;;6.82;3.15;;;;;;;18.66;47.23;103169.31;5054200;28;20028;-64
2022/01/17 06:57:28;;;;;;;6.07;3.08;;;;;;;18.69;47.60;103178.88;5055027;28;20037;-65
2022/01/17 06:59:55;;;;;;;9.50;3.20;;;;;;;18.71;47.15;103189.38;5054648;28;20035;-64
2022/01/17 07:02:20;;;;;;;7.88;3.40;;;;;;;18.72;47.23;103205.16;5054169;28;20037;-64
2022/01/17 07:04:45;;;;;;;11.07;4.10;;;;;;;18.72;45.96;103217.50;5054496;28;20032;-61
2022/01/17 07:07:10;;;;;;;11.13;5.10;;;;;;;18.71;46.82;103205.22;5053912;28;20131;-61
2022/01/17 07:09:36;;;;;;;8.93;3.95;;;;;;;18.73;46.27;103228.00;5054386;28;20269;-63
2022/01/17 07:12:03;;;;;;;10.25;4.53;;;;;;;18.74;46.87;103223.56;5054754;28;20036;-64
2022/01/17 07:14:29;;;;;;;6.82;3.35;;;;;;;18.76;47.01;103205.88;5054023;28;20033;-62
2022/01/17 07:16:54;;;;;;;8.73;3.92;;;;;;;18.78;46.86;103198.72;5053674;28;20041;-62
2022/01/17 07:19:20;;;;;;;6.75;3.55;;;;;;;18.81;47.22;103182.75;5054315;28;20031;-61
2022/01/17 07:21:45;;;;;;;8.87;3.60;;;;;;;18.82;47.24;103179.19;5053621;28;20063;-62
2022/01/17 07:24:10;;;;;;;7.85;3.60;;;;;;;18.83;47.02;103165.91;5054358;28;20630;-63
2022/01/17 07:26:36;;;;;;;8.33;3.43;;;;;;;18.86;47.08;103154.34;5054258;28;20017;-62
2022/01/17 07:29:05;;;;;;;9.45;3.80;;;;;;;18.87;47.27;103152.53;5053640;28;20385;-62
2022/01/17 07:31:31;;;;;;;10.18;3.90;;;;;;;18.88;46.95;103148.97;5054197;28;20036;-62
2022/01/17 07:33:57;;;;;;;9.52;3.90;;;;;;;18.90;47.33;103165.63;5054177;28;20533;-62
2022/01/17 07:36:22;;;;;;;10.07;4.82;;;;;;;18.88;45.79;103172.75;5053373;28;20108;-62
2022/01/17 07:38:47;;;;;;;8.93;4.27;;;;;;;18.85;46.59;103181.72;5053680;28;20074;-62
2022/01/17 07:41:13;;;;;;;9.40;3.90;;;;;;;18.85;47.14;103181.72;5054342;28;20375;-62
2022/01/17 07:43:39;;;;;;;9.75;3.42;;;;;;;18.87;47.05;103189.53;5054064;28;20035;-66
2022/01/17 07:46:07;;;;;;;7.85;4.50;;;;;;;18.90;45.34;103187.63;5054879;28;20036;-65
2022/01/17 07:51:19;;;;;;;8.75;3.97;;;;;;;18.78;45.64;103194.28;5053975;28;20031;-65
2022/01/17 07:53:44;;;;;;;8.35;3.65;;;;;;;18.82;46.24;103195.03;5053766;28;20021;-62
2022/01/17 07:56:09;;;;;;;6.07;3.20;;;;;;;18.89;46.33;103204.41;5054057;28;20079;-61
2022/01/17 07:58:35;;;;;;;9.55;3.60;;;;;;;18.89;46.55;103209.69;5052702;28;20064;-62
2022/01/17 08:01:00;;;;;;;7.35;3.25;;;;;;;18.92;46.77;103216.63;5053732;28;20029;-62
2022/01/17 08:03:25;;;;;;;7.95;3.22;;;;;;;18.93;46.76;103218.31;5053636;28;20037;-65
2022/01/17 08:05:51;;;;;;;8.30;3.72;;;;;;;19.01;46.67;103227.59;5054785;28;20028;-67
2022/01/17 08:08:16;;;;;;;6.97;3.60;;;;;;;19.11;46.67;103233.31;5056306;28;20027;-65
2022/01/17 08:10:41;;;;;;;10.15;5.07;;;;;;;19.18;44.10;103232.09;5053337;28;20278;-66
2022/01/17 08:13:07;;;;;;;11.02;4.63;;;;;;;19.21;45.01;103242.50;5054671;28;20086;-66
2022/01/17 08:15:35;;;;;;;8.48;3.47;;;;;;;19.26;45.67;103242.28;5054159;28;20408;-63
2022/01/17 08:18:00;;;;;;;10.57;4.53;;;;;;;19.20;44.08;103251.38;5052659;28;20025;-64
2022/01/17 08:20:26;;;;;;;10.17;3.63;;;;;;;19.16;45.51;103248.94;5053567;28;20036;-65
2022/01/17 08:22:51;;;;;;;8.02;3.80;;;;;;;19.20;45.69;103227.56;5054151;28;20278;-63
2022/01/17 08:25:17;;;;;;;8.32;3.70;;;;;;;19.28;45.80;103232.50;5053219;28;20021;-63
2022/01/17 08:27:42;;;;;;;10.57;3.90;;;;;;;19.34;45.64;103239.25;5053266;28;20598;-62
2022/01/17 08:30:08;;;;;;;6.45;3.50;;;;;;;19.34;46.12;103233.97;5053336;28;20029;-61
2022/01/17 08:32:34;;;;;;;7.57;3.17;;;;;;;19.32;46.07;103238.50;5052122;28;20530;-62
2022/01/17 08:35:02;;;;;;;10.43;3.50;;;;;;;19.30;46.07;103237.72;5052987;28;20020;-62
2022/01/17 08:37:30;;;;;;;7.60;3.45;;;;;;;19.27;46.28;103241.34;5053179;28;20448;-64
2022/01/17 08:39:56;;;;;;;6.90;3.40;;;;;;;19.26;46.44;103241.41;5052319;28;20053;-65
2022/01/17 08:42:22;;;;;;;7.55;3.45;;;;;;;19.27;46.45;103240.50;5053165;28;20035;-64
2022/01/17 08:44:50;;;;;;;9.73;2.97;;;;;;;19.26;46.62;103233.50;5052779;28;20037;-66
2022/01/17 08:47:17;;;;;;;5.43;2.90;;;;;;;19.25;46.51;103222.06;5052098;28;20284;-66
2022/01/17 08:49:47;;;;;;;7.90;3.35;;;;;;;19.23;46.65;103218.63;5053030;28;20056;-64
2022/01/17 08:52:15;;;;;;;9.93;3.45;;;;;;;19.24;46.75;103224.78;5053003;28;20079;-64
2022/01/17 08:54:40;;;;;;;7.50;3.28;;;;;;;19.21;46.72;103223.97;5051863;28;20048;-64
2022/01/17 08:57:05;;;;;;;7.35;3.35;;;;;;;19.23;46.87;103231.00;5053007;28;20029;-65
2022/01/17 08:59:31;;;;;;;8.02;3.40;;;;;;;19.22;47.19;103232.78;5052517;28;20606;-62
2022/01/17 09:01:59;;;;;;;8.88;2.92;;;;;;;19.21;46.98;103237.19;5052436;28;20488;-65
2022/01/17 09:04:25;;;;;;;7.22;3.25;;;;;;;19.22;47.27;103240.72;5053021;28;20102;-64
2022/01/17 09:06:50;;;;;;;10.98;3.38;;;;;;;19.21;47.17;103241.66;5051648;28;20548;-71
2022/01/17 09:09:16;;;;;;;9.10;3.70;;;;;;;19.23;47.34;103245.06;5053322;28;20024;-68
2022/01/17 09:11:47;;;;;;;8.10;3.58;;;;;;;19.23;45.57;103250.34;5052700;28;20265;-69
2022/01/17 09:14:15;;;;;;;8.30;4.05;;;;;;;19.21;46.67;103253.06;5051945;28;20088;-67
2022/01/17 09:16:41;;;;;;;7.85;3.50;;;;;;;19.26;46.80;103249.34;5052290;28;20041;-68
2022/01/17 09:19:09;;;;;;;7.63;3.33;;;;;;;19.31;47.00;103260.56;5052904;28;20411;-68
2022/01/17 09:21:34;;;;;;;14.68;3.97;;;;;;;19.27;45.50;103269.59;5052012;28;20258;-68
2022/01/17 09:23:59;;;;;;;10.38;3.20;;;;;;;19.30;46.18;103285.31;5053474;28;20043;-65
2022/01/17 09:26:26;;;;;;;10.68;3.40;;;;;;;19.32;45.63;103286.94;5053805;28;20579;-65
2022/01/17 09:28:52;;;;;;;7.57;3.17;;;;;;;19.35;46.58;103286.78;5051697;28;20037;-64
2022/01/17 09:31:18;;;;;;;9.63;3.00;;;;;;;19.40;46.71;103291.84;5053272;28;20503;-67
2022/01/17 09:33:43;;;;;;;10.25;3.40;;;;;;;19.46;46.72;103299.50;5053067;28;20037;-65
2022/01/17 09:36:08;;;;;;;8.43;3.20;;;;;;;19.52;46.63;103295.72;5051890;28;20041;-66
2022/01/17 09:38:37;;;;;;;9.88;3.13;;;;;;;19.56;46.36;103290.16;5052098;28;20049;-66
2022/01/17 09:41:04;;;;;;;6.78;2.70;;;;;;;19.56;46.33;103287.53;5055907;28;20385;-64
2022/01/17 09:43:29;;;;;;;5.97;2.75;;;;;;;19.52;46.55;103288.63;5055420;28;20037;-65
2022/01/17 09:45:56;;;;;;;9.48;2.83;;;;;;;19.49;46.74;103288.75;5056246;28;20495;-63
2022/01/17 09:48:34;;;;;;;10.10;3.30;;;;;;;19.45;46.81;103300.41;5056413;28;20094;-63
2022/01/17 09:51:05;;;;;;;10.73;3.00;;;;;;;19.42;47.16;103294.41;5055714;28;20087;-65
2022/01/17 09:53:38;;;;;;;9.27;2.70;;;;;;;19.45;47.01;103310.16;5057222;28;20028;-67
2022/01/17 09:56:05;;;;;;;9.27;2.72;;;;;;;19.52;46.95;103308.94;5059918;28;20029;-68
2022/01/17 09:58:31;;;;;;;8.00;2.80;;;;;;;19.59;46.67;103310.31;5056867;28;20045;-66
2022/01/17 10:00:56;;;;;;;8.57;2.78;;;;;;;19.67;46.86;103324.03;5056774;28;20041;-67
2022/01/17 10:03:22;;;;;;;8.27;2.72;;;;;;;19.75;46.70;103339.53;5055663;28;20025;-66
2022/01/17 10:05:48;;;;;;;8.43;2.42;;;;;;;19.79;46.73;103319.97;5056218;28;20100;-66
2022/01/17 10:08:20;;;;;;;10.23;2.85;;;;;;;19.84;46.55;103327.69;5056231;28;20452;-63
2022/01/17 10:10:54;;;;;;;12.40;2.60;;;;;;;19.81;45.98;103330.47;5054861;28;20029;-68
2022/01/17 10:13:24;;;;;;;;;;;;;;;19.72;46.56;103319.38;5056429;28;20032;-69
2022/01/17 10:16:01;;;;;;;6.32;2.17;;;;;;;19.65;47.07;103323.25;5055649;28;19924;-63
2022/01/17 10:18:33;;;;;;;8.60;2.70;;;;;;;19.60;47.29;103332.34;5054883;28;20031;-67
2022/01/17 10:21:07;;;;;;;9.25;3.13;;;;;;;19.56;47.02;103326.34;5055441;28;20104;-67
2022/01/17 10:23:56;;;;;;;13.55;2.60;;;;;;;19.51;47.33;103317.78;5055714;28;20027;-67
2022/01/17 10:34:54;;;;;;;13.27;2.65;;;;;;;19.37;47.92;103340.44;5033250;28;20028;-67
2022/01/17 10:37:25;;;;;;;9.15;2.67;;;;;;;19.36;47.90;103337.91;5048000;28;20070;-68
2022/01/17 10:39:59;;;;;;;12.18;2.72;;;;;;;19.34;47.96;103351.19;5054156;28;20082;-67
2022/01/17 10:42:35;;;;;;;13.55;2.83;;;;;;;19.32;47.88;103337.16;5055381;28;20048;-65
2022/01/17 10:45:12;;;;;;;9.30;2.80;;;;;;;19.32;47.83;103344.25;5055269;28;20041;-65
2022/01/17 10:47:45;;;;;;;11.00;2.80;;;;;;;19.31;47.80;103339.88;5054925;28;20029;-65
2022/01/17 10:50:18;;;;;;;5.60;2.30;;;;;;;19.28;47.84;103348.81;5054797;28;20086;-64
2022/01/17 10:52:49;;;;;;;9.15;2.40;;;;;;;19.26;47.65;103342.72;5053338;28;20025;-64
2022/01/17 10:55:21;;;;;;;10.15;2.45;;;;;;;19.24;47.73;103344.59;5055212;28;20040;-66
2022/01/17 10:57:49;;;;;;;10.40;2.67;;;;;;;19.21;46.57;103358.81;5054507;28;20492;-66
2022/01/17 11:00:18;;;;;;;11.25;3.40;;;;;;;19.19;47.30;103357.19;5054120;28;20067;-67
2022/01/17 11:02:56;;;;;;;8.65;2.50;;;;;;;19.18;47.87;103374.84;5054524;28;20120;-67
2022/01/17 11:05:27;;;;;;;7.90;2.25;;;;;;;19.18;47.39;103369.56;5055030;28;20025;-66
2022/01/17 11:07:55;;;;;;;11.27;2.72;;;;;;;19.14;47.74;103372.41;5054009;28;20032;-68
2022/01/17 11:10:28;;;;;;;7.43;2.38;;;;;;;19.15;47.99;103376.75;5055046;28;20032;-69
2022/01/17 11:12:56;;;;;;;12.38;2.95;;;;;;;19.15;48.17;103387.31;5054852;28;20481;-70
2022/01/17 11:15:23;;;;;;;13.45;2.55;;;;;;;19.15;47.87;103384.66;5054541;28;20028;-67
2022/01/17 11:17:55;;;;;;;13.00;3.22;;;;;;;19.16;47.25;103383.75;5054908;28;20033;-69
2022/01/17 11:20:23;;;;;;;10.95;3.92;;;;;;;19.15;47.89;103384.66;5054284;28;20604;-67
2022/01/17 11:22:51;;;;;;;12.48;5.30;;;;;;;19.15;47.92;103379.38;5054303;28;20148;-67
2022/01/17 11:25:20;;;;;;;12.55;6.65;;;;;;;19.15;48.30;103377.63;5054633;28;20036;-67
2022/01/17 11:27:46;;;;;;;15.13;7.82;;;;;;;19.16;48.27;103370.53;5053334;28;20029;-67
2022/01/17 11:30:12;;;;;;;20.35;9.27;;;;;;;19.17;48.36;103364.34;5054254;28;20036;-67
2022/01/17 11:32:39;;;;;;;14.82;9.23;;;;;;;19.17;48.35;103353.75;5054116;28;20044;-67
2022/01/17 11:35:06;;;;;;;17.65;10.20;;;;;;;19.18;48.46;103352.81;5053537;28;20036;-66
2022/01/17 11:37:44;;;;;;;15.77;9.68;;;;;;;19.18;48.45;103343.13;5053876;28;20047;-66
2022/01/17 11:40:12;;;;;;;15.48;10.55;;;;;;;19.18;48.43;103340.47;5053912;28;20168;-66
2022/01/17 11:42:37;;;;;;;18.95;11.07;;;;;;;19.21;48.53;103347.38;5053291;28;20029;-62
2022/01/17 11:45:22;;;;;;;17.80;10.80;;;;;;;19.17;48.39;103338.75;5054199;28;20057;-69